createdAt,value
2019-04-06T00:02:03.634Z,21.33
2019-04-06T00:04:32.989Z,19.02
2019-04-06T00:07:00.762Z,19.95
2019-04-06T00:09:28.553Z,21.45
2019-04-06T00:14:34.125Z,17.87
2019-04-06T00:17:01.829Z,20.08
2019-04-06T00:19:29.804Z,19.65
2019-04-06T00:21:57.579Z,19.87
2019-04-06T00:24:25.361Z,19.25
2019-04-06T00:26:53.121Z,18.62
2019-04-06T00:29:20.803Z,22.25
2019-04-06T00:31:55.078Z,18.77
2019-04-06T00:34:24.423Z,18.40
2019-04-06T00:36:52.181Z,17.75
2019-04-06T00:39:19.916Z,19.30
2019-04-06T00:41:47.672Z,18.75
2019-04-06T00:44:16.832Z,16.70
2019-04-06T00:46:44.829Z,20.25
2019-04-06T00:49:15.271Z,21.75
2019-04-06T00:51:45.951Z,17.20
2019-04-06T00:54:13.708Z,18.87
2019-04-06T00:56:41.450Z,21.55
2019-04-06T00:59:09.141Z,20.32
2019-04-06T01:01:36.915Z,22.50
2019-04-06T01:04:04.706Z,20.35
2019-04-06T01:06:32.457Z,20.50
2019-04-06T01:09:00.149Z,18.32
2019-04-06T01:11:28.013Z,23.22
2019-04-06T01:13:55.686Z,20.43
2019-04-06T01:16:23.410Z,18.73
2019-04-06T01:18:51.146Z,20.08
2019-04-06T01:21:18.887Z,22.20
2019-04-06T01:23:46.685Z,19.57
2019-04-06T01:26:14.434Z,19.20
2019-04-06T01:28:42.101Z,20.92
2019-04-06T01:31:09.933Z,20.10
2019-04-06T01:33:37.661Z,21.23
2019-04-06T01:36:05.346Z,20.97
2019-04-06T01:38:33.107Z,17.62
2019-04-06T01:41:00.785Z,24.30
2019-04-06T01:43:28.535Z,18.85
2019-04-06T01:45:56.198Z,21.25
2019-04-06T01:48:23.929Z,17.55
2019-04-06T01:50:51.629Z,22.77
2019-04-06T01:53:19.394Z,19.15
2019-04-06T01:55:47.077Z,20.20
2019-04-06T01:58:14.829Z,23.22
2019-04-06T02:00:55.841Z,19.15
2019-04-06T02:03:25.203Z,20.35
2019-04-06T02:05:52.890Z,19.52
2019-04-06T02:08:21.117Z,22.50
2019-04-06T02:10:48.865Z,21.20
2019-04-06T02:13:16.619Z,22.50
2019-04-06T02:15:44.294Z,17.95
2019-04-06T02:18:12.057Z,20.23
2019-04-06T02:20:39.810Z,28.38
2019-04-06T02:23:07.594Z,22.48
2019-04-06T02:25:35.280Z,22.77
2019-04-06T02:28:03.054Z,21.57
2019-04-06T02:30:37.648Z,25.25
2019-04-06T02:33:26.625Z,25.75
2019-04-06T02:36:18.049Z,22.10
2019-04-06T02:38:58.162Z,23.75
2019-04-06T02:42:02.137Z,21.97
2019-04-06T02:44:31.571Z,21.15
2019-04-06T02:46:59.239Z,23.67
2019-04-06T02:49:27.013Z,23.05
2019-04-06T02:51:54.590Z,22.02
2019-04-06T02:54:22.363Z,24.47
2019-04-06T02:56:50.077Z,19.55
2019-04-06T02:59:17.900Z,23.32
2019-04-06T03:01:45.881Z,29.65
2019-04-06T03:04:13.529Z,23.75
2019-04-06T03:06:41.258Z,23.10
2019-04-06T03:09:11.488Z,24.52
2019-04-06T03:11:38.631Z,27.40
2019-04-06T03:14:06.380Z,20.80
2019-04-06T03:16:34.140Z,24.65
2019-04-06T03:19:01.893Z,29.48
2019-04-06T03:21:29.727Z,26.82
2019-04-06T03:23:57.412Z,23.73
2019-04-06T03:26:25.332Z,21.95
2019-04-06T03:28:53.093Z,23.92
2019-04-06T03:31:25.230Z,20.65
2019-04-06T03:33:50.493Z,25.15
2019-04-06T03:36:18.434Z,23.98
2019-04-06T03:38:46.147Z,21.55
2019-04-06T03:41:13.882Z,27.98
2019-04-06T03:43:41.561Z,27.17
2019-04-06T03:46:09.316Z,24.92
2019-04-06T03:48:37.010Z,23.32
2019-04-06T03:51:04.670Z,28.30
2019-04-06T03:53:32.533Z,24.72
2019-04-06T03:56:00.270Z,22.27
2019-04-06T03:58:28.059Z,27.45
2019-04-06T04:00:55.724Z,22.98
2019-04-06T04:03:23.599Z,24.60
2019-04-06T04:05:51.675Z,26.25
2019-04-06T04:08:19.844Z,21.52
2019-04-06T04:10:48.058Z,28.25
2019-04-06T04:13:15.972Z,24.35
2019-04-06T04:15:43.646Z,23.57
2019-04-06T04:18:11.576Z,25.27
2019-04-06T04:20:39.325Z,23.83
2019-04-06T04:23:07.078Z,23.90
2019-04-06T04:25:34.847Z,23.00
2019-04-06T04:28:02.589Z,21.00
2019-04-06T04:30:33.174Z,20.08
2019-04-06T04:32:59.916Z,23.18
2019-04-06T04:35:28.187Z,25.37
2019-04-06T04:37:56.324Z,23.60
2019-04-06T04:40:24.176Z,26.05
2019-04-06T04:42:52.043Z,22.05
2019-04-06T04:45:19.730Z,22.45
2019-04-06T04:47:50.010Z,25.17
2019-04-06T04:50:17.119Z,23.18
2019-04-06T04:52:44.822Z,22.10
2019-04-06T04:55:12.673Z,28.20
2019-04-06T04:57:41.684Z,26.25
2019-04-06T05:00:10.092Z,23.02
2019-04-06T05:02:38.277Z,21.95
2019-04-06T05:05:06.259Z,19.80
2019-04-06T05:07:34.317Z,23.30
2019-04-06T05:10:02.128Z,25.45
2019-04-06T05:12:31.416Z,25.70
2019-04-06T05:15:04.566Z,24.60
2019-04-06T05:17:33.872Z,27.75
2019-04-06T05:20:01.760Z,22.65
2019-04-06T05:22:31.064Z,23.92
2019-04-06T05:24:58.824Z,27.55
2019-04-06T05:27:26.925Z,28.77
2019-04-06T05:29:54.724Z,26.15
2019-04-06T05:32:22.404Z,27.07
2019-04-06T05:34:50.238Z,26.02
2019-04-06T05:37:18.213Z,26.05
2019-04-06T05:39:45.906Z,24.20
2019-04-06T05:42:13.679Z,25.35
2019-04-06T05:44:41.422Z,27.62
2019-04-06T05:47:09.250Z,25.20
2019-04-06T05:49:36.951Z,33.70
2019-04-06T05:52:04.701Z,26.73
2019-04-06T05:54:32.669Z,27.60
2019-04-06T05:57:00.796Z,31.27
2019-04-06T05:59:28.469Z,34.08
2019-04-06T06:01:56.321Z,36.95
2019-04-06T06:04:24.086Z,34.75
2019-04-06T06:06:51.849Z,33.95
2019-04-06T06:09:19.928Z,34.00
2019-04-06T06:11:47.845Z,40.33
2019-04-06T06:14:15.677Z,38.25
2019-04-06T06:16:43.443Z,35.35
2019-04-06T06:19:11.161Z,41.83
2019-04-06T06:21:38.991Z,37.50
2019-04-06T06:24:06.693Z,42.80
2019-04-06T06:26:34.361Z,43.25
2019-04-06T06:29:02.184Z,41.08
2019-04-06T06:31:30.101Z,41.42
2019-04-06T06:33:57.994Z,42.53
2019-04-06T06:36:25.689Z,36.77
2019-04-06T06:38:53.505Z,44.10
2019-04-06T06:41:21.238Z,43.10
2019-04-06T06:43:48.981Z,47.10
2019-04-06T06:46:16.675Z,36.13
2019-04-06T06:48:44.461Z,40.78
2019-04-06T06:51:12.135Z,41.15
2019-04-06T06:53:40.009Z,41.13
2019-04-06T06:56:07.734Z,40.35
2019-04-06T06:58:35.913Z,37.28
2019-04-06T07:01:04.105Z,38.25
2019-04-06T07:03:32.060Z,50.17
2019-04-06T07:05:59.726Z,37.80
2019-04-06T07:08:27.497Z,45.03
2019-04-06T07:10:55.173Z,45.10
2019-04-06T07:13:22.946Z,45.55
2019-04-06T07:15:50.670Z,37.48
2019-04-06T07:18:18.504Z,47.45
2019-04-06T07:20:46.370Z,42.05
2019-04-06T07:23:14.147Z,40.25
2019-04-06T07:25:41.874Z,41.60
2019-04-06T07:28:09.666Z,38.42
2019-04-06T07:30:37.391Z,42.25
2019-04-06T07:33:05.085Z,40.58
2019-04-06T07:35:32.870Z,41.63
2019-04-06T07:38:00.553Z,44.15
2019-04-06T07:40:28.305Z,40.55
2019-04-06T07:42:56.261Z,39.90
2019-04-06T07:45:24.103Z,38.92
2019-04-06T07:47:51.841Z,41.20
2019-04-06T07:50:20.010Z,43.98
2019-04-06T07:52:47.826Z,43.48
2019-04-06T07:55:15.727Z,44.03
2019-04-06T07:57:43.598Z,46.65
2019-04-06T08:00:11.614Z,40.65
2019-04-06T08:02:39.653Z,43.52
2019-04-06T08:05:08.008Z,38.78
2019-04-06T08:07:35.835Z,37.67
2019-04-06T08:10:04.541Z,32.23
2019-04-06T08:12:33.473Z,38.53
2019-04-06T08:15:01.293Z,31.87
2019-04-06T08:17:30.690Z,38.60
2019-04-06T08:19:58.674Z,36.83
2019-04-06T08:22:28.477Z,36.42
2019-04-06T08:24:58.110Z,33.98
2019-04-06T08:27:26.032Z,40.60
2019-04-06T08:29:56.760Z,34.75
2019-04-06T08:32:24.573Z,34.80
2019-04-06T08:34:52.448Z,35.60
2019-04-06T08:37:20.234Z,34.95
2019-04-06T08:39:47.982Z,36.05
2019-04-06T08:42:15.772Z,32.40
2019-04-06T08:44:43.495Z,35.08
2019-04-06T08:47:15.089Z,36.25
2019-04-06T08:49:43.022Z,36.08
2019-04-06T08:52:11.709Z,37.80
2019-04-06T08:54:39.717Z,33.80
2019-04-06T08:57:07.529Z,35.73
2019-04-06T08:59:37.604Z,35.15
2019-04-06T09:02:05.413Z,38.02
2019-04-06T09:04:33.189Z,32.63
2019-04-06T09:07:01.604Z,37.78
2019-04-06T09:09:29.662Z,36.08
2019-04-06T09:12:00.386Z,39.30
2019-04-06T09:14:28.255Z,38.50
2019-04-06T09:16:56.250Z,37.67
2019-04-06T09:19:24.108Z,35.48
2019-04-06T09:22:09.908Z,37.03
2019-04-06T09:24:32.253Z,35.03
2019-04-06T09:27:07.790Z,38.98
2019-04-06T09:29:35.799Z,34.53
2019-04-06T09:32:03.694Z,39.53
2019-04-06T09:34:31.605Z,40.70
2019-04-06T09:36:59.296Z,32.67
2019-04-06T09:39:27.242Z,35.23
2019-04-06T09:41:55.007Z,35.80
2019-04-06T09:44:44.669Z,33.60
2019-04-06T09:47:45.516Z,32.03
2019-04-06T09:50:35.096Z,33.38
2019-04-06T09:53:22.729Z,34.43
2019-04-06T09:56:04.930Z,33.80
2019-04-06T09:58:54.080Z,39.05
2019-04-06T10:01:42.915Z,36.53
2019-04-06T10:04:23.369Z,35.30
2019-04-06T10:07:04.795Z,36.38
2019-04-06T10:09:53.720Z,35.58
2019-04-06T10:12:35.448Z,36.60
2019-04-06T10:15:27.539Z,35.80
2019-04-06T10:18:16.221Z,36.05
2019-04-06T10:21:05.220Z,33.38
2019-04-06T10:23:52.698Z,36.05
2019-04-06T10:26:53.906Z,34.30
2019-04-06T10:29:48.969Z,32.78
2019-04-06T10:32:24.202Z,32.78
2019-04-06T10:35:13.071Z,32.75
2019-04-06T10:38:05.334Z,34.20
2019-04-06T10:40:50.359Z,33.42
2019-04-06T10:43:48.402Z,33.90
2019-04-06T10:46:40.316Z,31.55
2019-04-06T10:49:22.044Z,29.87
2019-04-06T10:52:12.731Z,26.20
2019-04-06T10:55:17.287Z,28.30
2019-04-06T10:57:58.293Z,36.30
2019-04-06T11:00:51.851Z,31.02
2019-04-06T11:03:55.927Z,28.95
2019-04-06T11:06:54.559Z,31.07
2019-04-06T11:09:46.161Z,30.88
2019-04-06T11:12:31.414Z,31.15
2019-04-06T11:15:32.592Z,29.30
2019-04-06T11:18:24.816Z,29.40
2019-04-06T11:21:12.526Z,29.70
2019-04-06T11:23:52.955Z,26.65
2019-04-06T11:26:57.163Z,28.73
2019-04-06T11:29:37.390Z,25.62
2019-04-06T11:32:19.189Z,28.85
2019-04-06T11:35:20.437Z,27.75
2019-04-06T11:38:07.900Z,21.70
2019-04-06T11:41:12.298Z,18.77
2019-04-06T11:44:01.489Z,18.65
2019-04-06T11:46:49.494Z,18.60
2019-04-06T11:49:35.515Z,17.10
2019-04-06T11:52:36.697Z,16.77
2019-04-06T11:55:24.987Z,16.50
2019-04-06T11:58:23.094Z,17.73
2019-04-06T12:01:17.274Z,16.70
2019-04-06T12:04:05.090Z,18.17
2019-04-06T12:07:03.275Z,17.77
2019-04-06T12:09:51.287Z,17.05
2019-04-06T12:12:48.318Z,17.73
2019-04-06T12:15:35.685Z,16.67
2019-04-06T12:18:33.940Z,17.07
2019-04-06T12:21:21.881Z,19.25
2019-04-06T12:24:23.094Z,17.45
2019-04-06T12:27:11.914Z,17.95
2019-04-06T12:30:06.913Z,17.07
2019-04-06T12:32:52.394Z,17.77
2019-04-06T12:35:38.622Z,17.40
2019-04-06T12:38:20.339Z,17.90
2019-04-06T12:41:03.392Z,18.50
2019-04-06T12:43:55.204Z,17.52
2019-04-06T12:46:44.240Z,17.98
2019-04-06T12:49:48.349Z,16.85
2019-04-06T12:52:23.748Z,18.30
2019-04-06T12:55:07.270Z,18.12
2019-04-06T12:57:54.124Z,17.55
2019-04-06T13:00:50.710Z,19.30
2019-04-06T13:03:35.667Z,16.95
2019-04-06T13:06:24.558Z,18.73
2019-04-06T13:09:22.766Z,15.80
2019-04-06T13:12:17.561Z,18.30
2019-04-06T13:15:12.254Z,16.52
2019-04-06T13:17:53.291Z,17.55
2019-04-06T13:20:42.264Z,16.02
2019-04-06T13:23:30.185Z,15.30
2019-04-06T13:26:34.496Z,17.10
2019-04-06T13:29:35.720Z,15.05
2019-04-06T13:32:17.106Z,14.68
2019-04-06T13:34:56.110Z,14.85
2019-04-06T13:37:35.944Z,14.73
2019-04-06T13:40:25.240Z,14.93
2019-04-06T13:43:01.887Z,11.63
2019-04-06T13:46:09.336Z,13.65
2019-04-06T13:48:57.212Z,14.23
2019-04-06T13:51:49.979Z,13.55
2019-04-06T13:54:38.912Z,13.58
2019-04-06T13:57:17.736Z,13.58
2019-04-06T13:59:54.644Z,14.13
2019-04-06T14:02:52.550Z,14.10
2019-04-06T14:05:37.102Z,13.58
2019-04-06T14:08:22.487Z,14.60
2019-04-06T14:11:01.301Z,13.08
2019-04-06T14:13:58.867Z,14.20
2019-04-06T14:16:46.623Z,14.25
2019-04-06T14:19:34.186Z,13.40
2019-04-06T14:22:29.226Z,13.90
2019-04-06T14:25:16.973Z,13.98
2019-04-06T14:28:12.075Z,13.48
2019-04-06T14:31:27.862Z,12.75
2019-04-06T14:34:12.632Z,13.43
2019-04-06T14:36:50.571Z,13.32
2019-04-06T14:39:30.820Z,13.13
2019-04-06T14:42:19.761Z,12.80
2019-04-06T14:45:21.125Z,12.88
2019-04-06T14:47:58.277Z,12.85
2019-04-06T14:50:46.303Z,11.57
2019-04-06T14:53:24.665Z,12.37
2019-04-06T14:56:02.985Z,13.45
2019-04-06T15:32:10.253Z,12.23
2019-04-06T15:34:59.054Z,12.50
2019-04-06T15:37:39.983Z,11.83
2019-04-06T15:40:27.697Z,12.07
2019-04-06T15:43:22.278Z,11.80
2019-04-06T15:46:00.963Z,11.45
2019-04-06T15:48:48.141Z,11.48
2019-04-06T15:51:39.628Z,13.13
2019-04-06T15:54:24.198Z,11.93
2019-04-06T15:57:16.781Z,11.30
2019-04-06T16:00:17.600Z,11.48
2019-04-06T16:02:57.834Z,11.78
2019-04-06T16:05:39.434Z,11.88
2019-04-06T16:08:21.926Z,12.33
2019-04-06T16:11:01.356Z,11.97
2019-04-06T16:13:42.411Z,13.60
2019-04-06T16:16:19.609Z,12.75
2019-04-06T16:19:04.884Z,11.93
2019-04-06T16:21:43.706Z,11.75
2019-04-06T16:24:26.529Z,11.88
2019-04-06T16:27:14.122Z,11.73
2019-04-06T16:29:48.739Z,11.97
2019-04-06T16:32:56.061Z,11.73
2019-04-06T16:35:45.260Z,11.73
2019-04-06T16:38:36.262Z,11.83
2019-04-06T16:41:14.165Z,11.48
2019-04-06T16:44:02.009Z,12.75
2019-04-06T16:46:49.895Z,12.50
2019-04-06T16:49:39.054Z,12.30
2019-04-06T16:52:29.947Z,13.08
2019-04-06T16:55:15.860Z,11.97
2019-04-06T16:58:03.430Z,11.35
2019-04-06T17:00:40.370Z,13.05
2019-04-06T17:03:29.201Z,12.28
2019-04-06T17:06:20.398Z,12.45
2019-04-06T17:09:12.188Z,11.45
2019-04-06T17:11:57.321Z,11.85
2019-04-06T17:14:44.875Z,10.75
2019-04-06T17:17:52.244Z,11.40
2019-04-06T17:20:37.179Z,11.80
2019-04-06T17:23:15.818Z,11.57
2019-04-06T17:26:03.345Z,13.22
2019-04-06T17:28:58.724Z,11.80
2019-04-06T17:31:44.178Z,11.18
2019-04-06T17:34:27.445Z,12.85
2019-04-06T17:37:22.569Z,11.53
2019-04-06T17:40:20.133Z,9.70
2019-04-06T17:43:15.242Z,10.70
2019-04-06T17:46:07.277Z,16.48
2019-04-06T17:48:47.590Z,18.07
2019-04-06T17:51:37.522Z,18.55
2019-04-06T17:54:36.238Z,14.80
2019-04-06T17:57:25.076Z,13.85
2019-04-06T18:00:14.284Z,11.57
2019-04-06T18:03:03.451Z,11.25
2019-04-06T18:05:55.555Z,9.95
2019-04-06T18:08:47.323Z,9.35
2019-04-06T18:11:25.885Z,10.50
2019-04-06T18:13:55.336Z,10.80
2019-04-06T18:16:26.266Z,10.32
2019-04-06T18:18:55.571Z,10.63
2019-04-06T18:21:23.618Z,21.12
2019-04-06T18:23:51.551Z,17.57
2019-04-06T18:26:19.511Z,12.88
2019-04-06T18:28:47.330Z,12.23
2019-04-06T18:31:38.211Z,11.75
2019-04-06T18:34:08.101Z,12.20
2019-04-06T18:36:53.897Z,10.90
2019-04-06T18:39:29.371Z,13.30
2019-04-06T18:42:00.214Z,12.53
2019-04-06T18:44:28.125Z,12.80
2019-04-06T18:46:56.612Z,11.85
2019-04-06T18:49:29.702Z,14.33
2019-04-06T18:51:57.577Z,12.78
2019-04-06T18:54:29.556Z,13.25
2019-04-06T18:56:58.074Z,12.80
2019-04-06T18:59:26.263Z,12.40
2019-04-06T19:01:54.127Z,11.03
2019-04-06T19:04:22.594Z,12.60
2019-04-06T19:06:50.605Z,12.70
2019-04-06T19:09:24.059Z,13.22
2019-04-06T19:11:56.716Z,13.80
2019-04-06T19:14:23.907Z,13.38
2019-04-06T19:16:51.786Z,14.35
2019-04-06T19:19:19.554Z,12.80
2019-04-06T19:21:47.334Z,12.78
2019-04-06T19:24:15.494Z,14.43
2019-04-06T19:26:49.161Z,13.78
2019-04-06T19:29:20.399Z,15.03
2019-04-06T19:31:55.400Z,14.00
2019-04-06T19:34:27.114Z,15.03
2019-04-06T19:36:55.474Z,15.40
2019-04-06T19:39:24.192Z,16.27
2019-04-06T19:41:52.499Z,16.50
2019-04-06T19:44:20.518Z,15.75
2019-04-06T19:46:48.313Z,16.25
2019-04-06T19:49:16.143Z,15.20
2019-04-06T19:51:46.847Z,16.05
2019-04-06T19:54:14.553Z,13.80
2019-04-06T19:56:42.799Z,15.18
2019-04-06T19:59:12.925Z,15.88
2019-04-06T20:01:41.215Z,15.05
2019-04-06T20:04:09.123Z,17.40
2019-04-06T20:06:37.399Z,15.63
2019-04-06T20:09:06.508Z,17.55
2019-04-06T20:11:34.857Z,17.15
2019-04-06T20:14:02.823Z,20.05
2019-04-06T20:16:30.799Z,17.73
2019-04-06T20:19:01.567Z,17.73
2019-04-06T20:21:29.631Z,18.00
2019-04-06T20:23:57.422Z,17.60
2019-04-06T20:26:25.743Z,19.48
2019-04-06T20:28:53.573Z,19.92
2019-04-06T20:31:21.422Z,19.07
2019-04-06T20:33:51.901Z,18.12
2019-04-06T20:36:19.410Z,19.77
2019-04-06T20:38:47.424Z,18.12
2019-04-06T20:41:15.325Z,19.50
2019-04-06T20:43:43.270Z,19.32
2019-04-06T20:46:11.099Z,20.62
2019-04-06T20:48:38.899Z,20.15
2019-04-06T20:51:07.207Z,17.90
2019-04-06T20:53:35.398Z,20.77
2019-04-06T20:56:03.450Z,20.40
2019-04-06T20:58:31.373Z,20.00
2019-04-06T21:00:59.175Z,21.85
2019-04-06T21:03:27.008Z,21.23
2019-04-06T21:05:55.349Z,20.43
2019-04-06T21:08:24.083Z,20.62
2019-04-06T21:10:52.151Z,20.80
2019-04-06T21:13:20.099Z,19.90
2019-04-06T21:15:47.996Z,21.80
2019-04-06T21:18:15.711Z,21.17
2019-04-06T21:20:44.032Z,22.05
2019-04-06T21:23:12.013Z,22.37
2019-04-06T21:25:43.008Z,22.90
2019-04-06T21:28:10.929Z,22.70
2019-04-06T21:30:39.046Z,23.22
2019-04-06T21:33:06.917Z,22.37
2019-04-06T21:35:34.818Z,22.32
2019-04-06T21:38:02.644Z,22.32
2019-04-06T21:43:26.753Z,25.88
2019-04-06T21:45:54.891Z,20.08
2019-04-06T21:48:22.822Z,22.00
2019-04-06T21:50:50.646Z,22.48
2019-04-06T21:53:18.608Z,21.95
2019-04-06T21:55:47.131Z,22.30
2019-04-06T21:58:15.206Z,23.85
2019-04-06T22:00:51.214Z,22.25
2019-04-06T22:03:20.737Z,22.10
2019-04-06T22:05:48.833Z,23.60
2019-04-06T22:08:17.513Z,22.85
2019-04-06T22:10:52.778Z,24.43
2019-04-06T22:13:22.333Z,21.97
2019-04-06T22:15:50.591Z,22.80
2019-04-06T22:18:19.246Z,25.20
2019-04-06T22:20:47.239Z,24.23
2019-04-06T22:23:15.042Z,23.50
2019-04-06T22:25:42.868Z,23.77
2019-04-06T22:28:10.934Z,24.05
2019-04-06T22:30:39.826Z,23.05
2019-04-06T22:33:08.250Z,27.13
2019-04-06T22:35:36.269Z,26.75
2019-04-06T22:38:04.548Z,24.72
2019-04-06T22:40:32.535Z,24.65
2019-04-06T22:43:01.271Z,24.85
2019-04-06T22:45:29.873Z,23.77
2019-04-06T22:47:59.078Z,25.25
2019-04-06T22:50:27.033Z,27.22
2019-04-06T22:52:54.937Z,24.57
2019-04-06T22:55:23.181Z,26.00
2019-04-06T22:57:51.058Z,23.42
2019-04-06T23:00:44.296Z,25.88
2019-04-06T23:03:33.074Z,25.15
2019-04-06T23:06:05.793Z,24.87
2019-04-06T23:08:35.216Z,26.17
2019-04-06T23:11:03.541Z,25.50
2019-04-06T23:13:32.267Z,31.73
2019-04-06T23:16:00.104Z,25.20
2019-04-06T23:18:28.545Z,25.32
2019-04-06T23:20:56.595Z,24.32
2019-04-06T23:23:24.677Z,25.23
2019-04-06T23:25:52.881Z,27.22
2019-04-06T23:28:21.690Z,31.68
2019-04-06T23:30:50.175Z,29.07
2019-04-06T23:33:18.638Z,28.52
2019-04-06T23:35:47.088Z,26.97
2019-04-06T23:38:15.006Z,27.65
2019-04-06T23:40:43.113Z,29.80
2019-04-06T23:43:10.922Z,29.82
2019-04-06T23:45:39.393Z,29.42
2019-04-06T23:48:07.239Z,25.77
2019-04-06T23:50:35.721Z,28.07
2019-04-06T23:53:04.213Z,28.40
2019-04-06T23:55:32.715Z,28.87
2019-04-06T23:58:00.732Z,30.88
